createdAt,value
2024-02-19T00:02:26.322Z,89.80
2024-02-19T00:04:53.282Z,89.70
2024-02-19T00:07:22.684Z,89.80
2024-02-19T00:09:54.673Z,89.80
2024-02-19T00:12:21.665Z,89.60
2024-02-19T00:14:51.190Z,89.60
2024-02-19T00:17:20.299Z,89.80
2024-02-19T00:19:47.281Z,90.30
2024-02-19T00:22:16.485Z,90.40
2024-02-19T00:24:48.207Z,90.20
2024-02-19T00:27:18.231Z,90.40
2024-02-19T00:29:45.854Z,90.10
2024-02-19T00:32:12.745Z,90.40
2024-02-19T00:34:44.344Z,90.30
2024-02-19T00:37:12.069Z,90.20
2024-02-19T00:39:39.096Z,90.30
2024-02-19T00:42:06.156Z,90.60
2024-02-19T00:44:33.072Z,90.90
2024-02-19T00:47:00.012Z,90.90
2024-02-19T00:49:27.079Z,90.60
2024-02-19T00:51:54.152Z,90.60
2024-02-19T00:54:25.740Z,90.70
2024-02-19T00:56:54.813Z,90.50
2024-02-19T00:59:21.793Z,90.40
2024-02-19T01:01:48.874Z,90.40
2024-02-19T01:04:18.529Z,90.40
2024-02-19T01:06:45.609Z,90.50
2024-02-19T01:09:12.639Z,90.70
2024-02-19T01:11:41.723Z,90.70
2024-02-19T01:14:08.622Z,90.70
2024-02-19T01:16:37.967Z,90.80
2024-02-19T01:19:07.175Z,90.90
2024-02-19T01:21:34.305Z,91.20
2024-02-19T01:24:01.702Z,91.20
2024-02-19T01:26:28.652Z,91.30
2024-02-19T01:28:55.577Z,91.40
2024-02-19T01:31:22.578Z,91.60
2024-02-19T01:33:49.776Z,91.70
2024-02-19T01:36:16.809Z,91.90
2024-02-19T01:38:45.840Z,91.90
2024-02-19T01:41:19.848Z,92.20
2024-02-19T01:43:46.794Z,92.10
2024-02-19T01:46:16.727Z,92.20
2024-02-19T01:48:43.799Z,92.30
2024-02-19T01:51:10.961Z,92.30
2024-02-19T01:53:39.960Z,92.40
2024-02-19T01:56:07.152Z,92.50
2024-02-19T01:58:34.711Z,92.60
2024-02-19T02:01:05.574Z,92.50
2024-02-19T02:03:34.402Z,92.60
2024-02-19T02:06:01.451Z,92.60
2024-02-19T02:08:30.653Z,92.50
2024-02-19T02:10:57.634Z,92.40
2024-02-19T02:13:26.853Z,92.30
2024-02-19T02:15:53.823Z,92.20
2024-02-19T02:18:21.097Z,92.20
2024-02-19T02:20:48.857Z,92.20
2024-02-19T02:23:15.890Z,92.20
2024-02-19T02:25:45.307Z,92.20
2024-02-19T02:28:14.480Z,92.20
2024-02-19T02:30:41.404Z,92.00
2024-02-19T02:33:10.657Z,91.90
2024-02-19T02:35:37.626Z,91.80
2024-02-19T02:38:04.763Z,91.60
2024-02-19T02:40:31.760Z,91.70
2024-02-19T02:42:58.870Z,91.60
2024-02-19T02:45:25.974Z,91.60
2024-02-19T02:47:53.003Z,91.50
2024-02-19T02:50:22.157Z,91.50
2024-02-19T02:52:49.076Z,91.50
2024-02-19T02:55:16.093Z,91.50
2024-02-19T02:57:43.092Z,91.20
2024-02-19T03:00:15.102Z,91.30
2024-02-19T03:02:42.018Z,91.20
2024-02-19T03:05:09.062Z,91.40
2024-02-19T03:07:36.232Z,91.30
2024-02-19T03:10:03.364Z,91.30
2024-02-19T03:12:32.518Z,91.50
2024-02-19T03:14:59.432Z,91.60
2024-02-19T03:17:26.413Z,91.70
2024-02-19T03:19:53.380Z,91.80
2024-02-19T03:22:20.397Z,91.60
2024-02-19T03:24:47.388Z,91.70
2024-02-19T03:27:15.342Z,91.90
2024-02-19T03:29:42.451Z,91.90
2024-02-19T03:32:09.400Z,91.80
2024-02-19T03:34:38.811Z,91.80
2024-02-19T03:37:10.036Z,91.80
2024-02-19T03:39:37.500Z,91.70
2024-02-19T03:42:07.037Z,91.60
2024-02-19T03:44:36.070Z,91.50
2024-02-19T03:47:05.358Z,91.40
2024-02-19T03:49:32.419Z,91.20
2024-02-19T03:51:59.448Z,91.40
2024-02-19T03:54:28.756Z,91.50
2024-02-19T03:56:58.197Z,91.60
2024-02-19T03:59:25.154Z,91.50
2024-02-19T04:01:52.236Z,91.60
2024-02-19T04:04:20.179Z,91.60
2024-02-19T04:06:47.644Z,91.60
2024-02-19T04:09:14.686Z,91.60
2024-02-19T04:11:41.665Z,91.80
2024-02-19T04:14:08.585Z,91.90
2024-02-19T04:16:38.023Z,91.90
2024-02-19T04:19:05.087Z,91.60
2024-02-19T04:21:32.150Z,91.60
2024-02-19T04:24:03.653Z,91.60
2024-02-19T04:26:30.616Z,91.60
2024-02-19T04:28:57.653Z,91.50
2024-02-19T04:31:27.604Z,91.40
2024-02-19T04:33:54.749Z,91.20
2024-02-19T04:36:21.889Z,91.20
2024-02-19T04:38:53.524Z,91.20
2024-02-19T04:41:24.125Z,91.30
2024-02-19T04:43:53.181Z,91.20
2024-02-19T04:46:20.300Z,91.20
2024-02-19T04:48:47.349Z,91.10
2024-02-19T04:51:14.280Z,91.00
2024-02-19T04:53:44.265Z,91.00
2024-02-19T04:56:16.097Z,91.00
2024-02-19T04:58:47.911Z,91.10
2024-02-19T05:01:15.020Z,91.30
2024-02-19T05:03:42.047Z,91.30
2024-02-19T05:06:11.437Z,91.50
2024-02-19T05:08:38.375Z,91.40
2024-02-19T05:11:05.980Z,91.50
2024-02-19T05:13:38.576Z,91.50
2024-02-19T05:16:07.678Z,91.30
2024-02-19T05:18:34.987Z,91.40
2024-02-19T05:21:03.748Z,91.40
2024-02-19T05:23:36.403Z,91.40
2024-02-19T05:26:04.582Z,91.40
2024-02-19T05:28:35.710Z,91.40
2024-02-19T05:31:05.715Z,91.50
2024-02-19T05:33:32.672Z,91.30
2024-02-19T05:35:59.591Z,91.50
2024-02-19T05:38:28.626Z,91.40
2024-02-19T05:40:57.739Z,91.40
2024-02-19T05:43:27.614Z,91.50
2024-02-19T05:45:59.172Z,91.50
2024-02-19T05:48:26.246Z,91.50
2024-02-19T05:50:55.445Z,91.50
2024-02-19T05:53:22.392Z,91.50
2024-02-19T05:55:51.575Z,91.40
2024-02-19T05:58:21.014Z,91.40
2024-02-19T06:00:50.460Z,91.30
2024-02-19T06:03:17.451Z,91.20
2024-02-19T06:05:44.356Z,91.10
2024-02-19T06:08:11.299Z,91.10
2024-02-19T06:10:38.266Z,91.10
2024-02-19T06:13:05.508Z,91.20
2024-02-19T06:15:32.493Z,91.30
2024-02-19T06:17:59.539Z,91.50
2024-02-19T06:20:28.710Z,91.60
2024-02-19T06:22:55.645Z,91.60
2024-02-19T06:25:24.819Z,91.50
2024-02-19T06:27:51.996Z,91.30
2024-02-19T06:30:22.875Z,91.00
2024-02-19T06:32:49.890Z,90.80
2024-02-19T06:35:21.513Z,90.60
2024-02-19T06:37:49.494Z,90.40
2024-02-19T06:40:16.551Z,90.20
2024-02-19T06:42:43.557Z,90.00
2024-02-19T06:45:13.054Z,89.90
2024-02-19T06:47:42.129Z,89.80
2024-02-19T06:50:09.428Z,89.50
2024-02-19T06:52:40.436Z,89.10
2024-02-19T06:55:08.409Z,88.80
2024-02-19T06:57:35.359Z,88.60
2024-02-19T07:00:05.148Z,88.60
2024-02-19T07:02:32.217Z,88.50
2024-02-19T07:05:01.481Z,88.40
2024-02-19T07:07:28.866Z,88.50
2024-02-19T07:09:58.341Z,88.60
2024-02-19T07:12:25.437Z,88.40
2024-02-19T07:14:56.419Z,88.50
2024-02-19T07:17:23.698Z,88.40
2024-02-19T07:19:53.214Z,88.40
2024-02-19T07:22:25.229Z,88.40
2024-02-19T07:25:05.469Z,88.40
2024-02-19T07:27:37.418Z,88.20
2024-02-19T07:30:10.432Z,88.20
2024-02-19T07:32:37.518Z,88.20
2024-02-19T07:35:04.980Z,88.00
2024-02-19T07:37:34.411Z,88.00
2024-02-19T07:40:05.755Z,88.00
2024-02-19T07:42:32.824Z,88.00
2024-02-19T07:44:59.793Z,88.20
2024-02-19T07:47:26.759Z,88.20
2024-02-19T07:49:56.212Z,88.00
2024-02-19T07:52:24.270Z,88.00
2024-02-19T07:54:51.576Z,87.90
2024-02-19T07:57:18.656Z,87.70
2024-02-19T07:59:50.392Z,87.70
2024-02-19T08:02:19.466Z,87.70
2024-02-19T08:04:48.644Z,87.60
2024-02-19T08:07:18.160Z,87.40
2024-02-19T08:09:45.334Z,87.30
2024-02-19T08:12:13.252Z,87.20
2024-02-19T08:14:40.234Z,86.90
2024-02-19T08:17:07.377Z,86.80
2024-02-19T08:19:34.563Z,86.60
2024-02-19T08:22:08.879Z,86.20
2024-02-19T08:24:38.407Z,85.90
2024-02-19T08:27:08.429Z,85.50
2024-02-19T08:29:35.406Z,85.40
2024-02-19T08:32:04.623Z,85.50
2024-02-19T08:34:31.665Z,85.50
2024-02-19T08:37:00.958Z,85.10
2024-02-19T08:39:27.945Z,85.00
2024-02-19T08:41:55.857Z,85.00
2024-02-19T08:44:25.107Z,84.40
2024-02-19T08:46:52.139Z,84.40
2024-02-19T08:49:19.305Z,84.10
2024-02-19T08:51:48.654Z,83.60
2024-02-19T08:54:15.666Z,83.60
2024-02-19T08:56:47.367Z,83.60
2024-02-19T08:59:14.341Z,83.40
2024-02-19T09:01:41.419Z,83.50
2024-02-19T09:04:09.559Z,83.50
2024-02-19T09:06:36.708Z,83.40
2024-02-19T09:09:05.954Z,83.50
2024-02-19T09:11:35.157Z,83.40
2024-02-19T09:14:06.733Z,83.00
2024-02-19T09:16:36.168Z,83.20
2024-02-19T09:19:07.020Z,83.40
2024-02-19T09:21:38.522Z,83.50
2024-02-19T09:24:06.002Z,83.50
2024-02-19T09:26:33.056Z,83.50
2024-02-19T09:29:00.008Z,83.10
2024-02-19T09:31:27.567Z,83.30
2024-02-19T09:33:56.997Z,83.30
2024-02-19T09:36:26.817Z,83.50
2024-02-19T09:38:58.599Z,83.30
2024-02-19T09:41:25.588Z,83.00
2024-02-19T09:43:57.561Z,82.70
2024-02-19T09:46:29.508Z,83.00
2024-02-19T09:48:56.932Z,82.80
2024-02-19T09:51:33.011Z,82.60
2024-02-19T09:54:07.091Z,82.80
2024-02-19T09:56:34.512Z,82.80
2024-02-19T09:59:01.752Z,83.00
2024-02-19T10:01:31.097Z,82.80
2024-02-19T10:04:00.673Z,82.70
2024-02-19T10:06:37.518Z,82.30
2024-02-19T10:09:12.622Z,82.10
2024-02-19T10:11:45.106Z,82.20
2024-02-19T10:14:14.938Z,81.90
2024-02-19T10:16:53.147Z,81.90
2024-02-19T10:19:20.484Z,81.60
2024-02-19T10:21:51.809Z,81.70
2024-02-19T10:24:21.179Z,81.00
2024-02-19T10:26:50.862Z,81.00
2024-02-19T10:29:19.601Z,81.50
2024-02-19T10:31:47.620Z,81.20
2024-02-19T10:34:18.166Z,80.80
2024-02-19T10:36:47.876Z,80.60
2024-02-19T10:39:14.933Z,80.30
2024-02-19T10:41:44.179Z,80.70
2024-02-19T10:44:18.145Z,80.70
2024-02-19T10:46:50.041Z,81.20
2024-02-19T10:49:21.181Z,81.20
2024-02-19T10:51:52.838Z,81.80
2024-02-19T10:54:20.251Z,82.50
2024-02-19T10:56:47.662Z,82.70
2024-02-19T10:59:17.705Z,83.70
2024-02-19T11:01:51.222Z,84.60
2024-02-19T11:04:22.162Z,85.90
2024-02-19T11:06:56.784Z,86.20
2024-02-19T11:09:33.174Z,86.40
2024-02-19T11:12:02.441Z,86.50
2024-02-19T11:14:34.624Z,87.10
2024-02-19T11:17:02.366Z,87.10
2024-02-19T11:19:30.658Z,87.40
2024-02-19T11:22:11.624Z,87.20
2024-02-19T11:24:39.563Z,86.80
2024-02-19T11:27:09.526Z,86.30
2024-02-19T11:29:46.638Z,86.20
2024-02-19T11:32:20.728Z,87.10
2024-02-19T11:34:49.373Z,87.10
2024-02-19T11:37:21.371Z,87.40
2024-02-19T11:39:48.819Z,86.30
2024-02-19T11:42:19.009Z,87.10
2024-02-19T11:44:49.112Z,87.10
2024-02-19T11:47:16.884Z,86.90
2024-02-19T11:49:44.630Z,87.60
2024-02-19T11:52:15.436Z,88.50
2024-02-19T11:54:45.054Z,88.50
2024-02-19T11:57:15.579Z,88.10
2024-02-19T11:59:45.229Z,88.00
2024-02-19T12:02:12.381Z,88.50
2024-02-19T12:04:41.636Z,88.30
2024-02-19T12:07:12.221Z,88.90
2024-02-19T12:09:41.641Z,89.40
2024-02-19T12:12:11.318Z,89.00
2024-02-19T12:14:40.458Z,88.90
2024-02-19T12:17:08.325Z,88.00
2024-02-19T12:19:37.703Z,87.80
2024-02-19T12:22:04.982Z,87.00
2024-02-19T12:24:32.080Z,87.80
2024-02-19T12:26:59.214Z,86.60
2024-02-19T12:29:28.672Z,85.50
2024-02-19T12:31:55.827Z,85.20
2024-02-19T12:34:22.871Z,84.00
2024-02-19T12:36:49.990Z,84.70
2024-02-19T12:39:21.701Z,85.10
2024-02-19T12:41:50.157Z,82.90
2024-02-19T12:44:17.340Z,80.70
2024-02-19T12:46:46.037Z,79.10
2024-02-19T12:49:13.726Z,77.10
2024-02-19T12:51:41.272Z,77.20
2024-02-19T12:54:10.582Z,75.60
2024-02-19T12:56:40.021Z,77.40
2024-02-19T12:59:07.013Z,74.60
2024-02-19T13:01:36.656Z,74.00
2024-02-19T13:04:06.144Z,74.00
2024-02-19T13:06:36.051Z,74.40
2024-02-19T13:09:07.166Z,73.30
2024-02-19T13:11:34.152Z,73.70
2024-02-19T13:14:04.105Z,73.30
2024-02-19T13:16:35.887Z,73.70
2024-02-19T13:19:05.902Z,73.20
2024-02-19T13:21:35.582Z,74.30
2024-02-19T13:24:05.137Z,74.60
2024-02-19T13:26:32.123Z,73.40
2024-02-19T13:29:05.367Z,73.10
2024-02-19T13:31:34.613Z,74.00
2024-02-19T13:34:01.841Z,74.00
2024-02-19T13:36:31.669Z,75.20
2024-02-19T13:38:58.669Z,75.20
2024-02-19T13:41:32.756Z,74.10
2024-02-19T13:43:59.702Z,74.90
2024-02-19T13:46:26.676Z,75.50
2024-02-19T13:49:04.675Z,75.20
2024-02-19T13:51:34.098Z,74.30
2024-02-19T13:54:01.124Z,73.70
2024-02-19T13:56:29.252Z,74.90
2024-02-19T13:58:56.286Z,74.90
2024-02-19T14:01:23.345Z,74.30
2024-02-19T14:03:55.283Z,71.70
2024-02-19T14:06:26.936Z,73.10
2024-02-19T14:08:54.524Z,73.20
2024-02-19T14:11:24.073Z,72.50
2024-02-19T14:14:00.660Z,71.80
2024-02-19T14:16:31.610Z,71.30
2024-02-19T14:19:00.606Z,71.80
2024-02-19T14:21:28.198Z,71.10
2024-02-19T14:23:57.314Z,71.40
2024-02-19T14:26:29.825Z,70.90
2024-02-19T14:28:59.282Z,70.30
2024-02-19T14:31:26.477Z,69.70
2024-02-19T14:33:53.856Z,69.70
2024-02-19T14:36:25.426Z,69.30
2024-02-19T14:38:53.230Z,68.70
2024-02-19T14:41:22.739Z,70.00
2024-02-19T14:43:49.737Z,68.20
2024-02-19T14:46:16.813Z,67.90
2024-02-19T14:48:44.082Z,68.30
2024-02-19T14:51:16.174Z,68.80
2024-02-19T14:53:44.839Z,67.10
2024-02-19T14:56:11.880Z,68.00
2024-02-19T14:58:38.884Z,67.90
2024-02-19T15:01:05.953Z,67.30
2024-02-19T15:03:37.429Z,66.80
2024-02-19T15:06:07.175Z,67.20
2024-02-19T15:08:41.416Z,67.60
2024-02-19T15:11:08.397Z,68.00
2024-02-19T15:13:35.468Z,66.60
2024-02-19T15:16:02.549Z,67.10
2024-02-19T15:18:30.532Z,67.10
2024-02-19T15:20:57.915Z,67.70
2024-02-19T15:23:27.166Z,68.20
2024-02-19T15:25:54.208Z,67.70
2024-02-19T15:28:21.415Z,67.10
2024-02-19T15:30:48.550Z,67.40
2024-02-19T15:33:16.193Z,67.50
2024-02-19T15:35:46.756Z,67.20
2024-02-19T15:38:15.925Z,67.20
2024-02-19T15:40:42.893Z,67.30
2024-02-19T15:43:12.507Z,67.30
2024-02-19T15:45:44.698Z,67.20
2024-02-19T15:48:13.803Z,67.80
2024-02-19T15:50:41.158Z,67.10
2024-02-19T15:53:21.921Z,67.30
2024-02-19T15:55:56.764Z,67.80
2024-02-19T15:58:28.659Z,65.60
2024-02-19T16:00:55.819Z,64.80
2024-02-19T16:03:22.887Z,66.70
2024-02-19T16:05:50.506Z,66.40
2024-02-19T16:08:32.493Z,66.20
2024-02-19T16:11:05.886Z,66.20
2024-02-19T16:13:36.100Z,66.70
2024-02-19T16:16:09.154Z,66.80
2024-02-19T16:18:38.908Z,66.20
2024-02-19T16:21:06.254Z,66.10
2024-02-19T16:23:38.002Z,64.10
2024-02-19T16:26:08.958Z,63.30
2024-02-19T16:28:40.080Z,62.10
2024-02-19T16:31:07.165Z,63.20
2024-02-19T16:33:35.629Z,63.50
2024-02-19T16:36:04.186Z,62.10
2024-02-19T16:38:38.727Z,61.60
2024-02-19T16:41:07.049Z,62.30
2024-02-19T16:43:36.984Z,63.60
2024-02-19T16:46:04.412Z,62.60
2024-02-19T16:48:38.138Z,63.40
2024-02-19T16:51:10.527Z,63.20
2024-02-19T16:53:37.655Z,64.70
2024-02-19T16:56:05.490Z,64.30
2024-02-19T16:58:35.341Z,64.70
2024-02-19T17:01:06.789Z,64.90
2024-02-19T17:03:33.938Z,65.20
2024-02-19T17:06:07.783Z,65.40
2024-02-19T17:08:34.946Z,65.40
2024-02-19T17:11:04.607Z,65.80
2024-02-19T17:13:31.739Z,65.90
2024-02-19T17:16:00.995Z,66.40
2024-02-19T17:18:30.423Z,67.20
2024-02-19T17:20:57.549Z,67.90
2024-02-19T17:23:29.108Z,67.50
2024-02-19T17:25:56.089Z,68.20
2024-02-19T17:28:23.857Z,68.00
2024-02-19T17:30:54.035Z,67.30
2024-02-19T17:33:23.602Z,67.90
2024-02-19T17:35:50.844Z,67.20
2024-02-19T17:38:22.531Z,67.50
2024-02-19T17:40:49.677Z,67.10
2024-02-19T17:43:16.697Z,67.60
2024-02-19T17:45:43.821Z,67.90
2024-02-19T17:48:14.329Z,67.70
2024-02-19T17:50:51.806Z,68.10
2024-02-19T17:53:21.294Z,68.00
2024-02-19T17:55:48.257Z,68.60
2024-02-19T17:58:15.230Z,69.50
2024-02-19T18:00:43.470Z,68.20
2024-02-19T18:03:10.760Z,68.90
2024-02-19T18:05:40.298Z,68.80
2024-02-19T18:08:07.442Z,70.20
2024-02-19T18:10:34.643Z,69.40
2024-02-19T18:13:01.796Z,69.20
2024-02-19T18:15:28.821Z,70.00
2024-02-19T18:18:04.227Z,69.90
2024-02-19T18:20:33.812Z,70.60
2024-02-19T18:23:04.370Z,71.50
2024-02-19T18:25:33.993Z,70.60
2024-02-19T18:28:03.646Z,71.20
2024-02-19T18:30:32.939Z,71.20
2024-02-19T18:33:02.598Z,71.40
2024-02-19T18:35:32.184Z,72.40
2024-02-19T18:37:59.437Z,73.40
2024-02-19T18:40:29.278Z,74.40
2024-02-19T18:42:56.369Z,76.20
2024-02-19T18:45:27.603Z,76.80
2024-02-19T18:47:54.756Z,77.70
2024-02-19T18:50:24.034Z,78.30
2024-02-19T18:52:53.150Z,78.60
2024-02-19T18:55:24.165Z,79.00
2024-02-19T18:57:51.237Z,78.70
2024-02-19T19:00:23.079Z,78.40
2024-02-19T19:02:58.607Z,78.40
2024-02-19T19:05:28.720Z,78.60
2024-02-19T19:07:55.993Z,79.30
2024-02-19T19:10:25.092Z,79.30
2024-02-19T19:12:52.254Z,79.30
2024-02-19T19:15:19.384Z,79.50
2024-02-19T19:17:52.341Z,79.70
2024-02-19T19:20:19.527Z,80.30
2024-02-19T19:22:48.837Z,80.70
2024-02-19T19:25:18.127Z,81.00
2024-02-19T19:27:47.568Z,81.10
2024-02-19T19:30:17.353Z,81.20
2024-02-19T19:32:46.858Z,81.50
2024-02-19T19:35:15.525Z,81.60
2024-02-19T19:37:47.005Z,82.30
2024-02-19T19:40:14.637Z,81.70
2024-02-19T19:42:47.861Z,81.90
2024-02-19T19:45:15.529Z,82.10
2024-02-19T19:47:42.823Z,81.80
2024-02-19T19:50:10.411Z,82.20
2024-02-19T19:52:40.107Z,82.50
2024-02-19T19:55:07.690Z,82.00
2024-02-19T19:57:41.573Z,81.20
2024-02-19T20:00:09.072Z,80.60
2024-02-19T20:02:44.770Z,80.60
2024-02-19T20:05:12.986Z,79.80
2024-02-19T20:07:42.582Z,79.50
2024-02-19T20:10:14.717Z,79.20
2024-02-19T20:12:44.487Z,79.30
2024-02-19T20:15:12.007Z,79.60
2024-02-19T20:17:39.084Z,79.80
2024-02-19T20:20:07.490Z,79.80
2024-02-19T20:22:34.820Z,79.60
2024-02-19T20:25:01.964Z,79.80
2024-02-19T20:27:31.158Z,79.80
2024-02-19T20:29:58.144Z,80.10
2024-02-19T20:32:25.709Z,80.20
2024-02-19T20:34:52.814Z,80.30
2024-02-19T20:37:22.479Z,80.70
2024-02-19T20:39:52.514Z,80.40
2024-02-19T20:42:23.848Z,79.80
2024-02-19T20:44:50.795Z,79.50
2024-02-19T20:47:18.890Z,78.60
2024-02-19T20:49:48.142Z,78.60
2024-02-19T20:52:15.489Z,78.70
2024-02-19T20:54:42.515Z,78.50
2024-02-19T20:57:09.677Z,78.20
2024-02-19T20:59:41.552Z,78.00
2024-02-19T21:02:08.561Z,77.90
2024-02-19T21:04:36.301Z,78.40
2024-02-19T21:07:04.385Z,78.10
2024-02-19T21:09:36.377Z,77.90
2024-02-19T21:12:06.161Z,78.40
2024-02-19T21:14:38.156Z,78.20
2024-02-19T21:17:05.347Z,78.40
2024-02-19T21:19:33.651Z,78.30
2024-02-19T21:22:00.955Z,78.60
2024-02-19T21:24:28.036Z,78.00
2024-02-19T21:27:00.257Z,78.70
2024-02-19T21:29:29.833Z,78.60
2024-02-19T21:31:57.285Z,79.40
2024-02-19T21:34:24.487Z,79.50
2024-02-19T21:36:53.829Z,78.90
2024-02-19T21:39:22.985Z,78.60
2024-02-19T21:41:49.958Z,78.50
2024-02-19T21:44:16.986Z,78.60
2024-02-19T21:46:44.203Z,78.90
2024-02-19T21:49:11.441Z,79.30
2024-02-19T21:51:43.812Z,79.40
2024-02-19T21:54:13.281Z,80.20
2024-02-19T21:56:40.215Z,80.50
2024-02-19T21:59:09.441Z,81.10
2024-02-19T22:01:36.465Z,81.50
2024-02-19T22:04:06.394Z,81.70
2024-02-19T22:06:33.451Z,81.70
2024-02-19T22:09:01.492Z,81.80
2024-02-19T22:11:31.785Z,81.60
2024-02-19T22:13:58.892Z,80.50
2024-02-19T22:16:25.996Z,80.40
2024-02-19T22:18:55.342Z,80.00
2024-02-19T22:21:22.488Z,79.70
2024-02-19T22:23:49.563Z,79.40
2024-02-19T22:26:16.766Z,79.10
2024-02-19T22:28:43.794Z,78.90
2024-02-19T22:31:10.839Z,79.00
2024-02-19T22:33:37.930Z,79.60
2024-02-19T22:36:05.223Z,79.20
2024-02-19T22:38:32.200Z,78.70
2024-02-19T22:40:59.210Z,78.70
2024-02-19T22:43:27.687Z,79.30
2024-02-19T22:45:54.969Z,79.80
2024-02-19T22:48:22.119Z,79.70
2024-02-19T22:50:51.447Z,79.70
2024-02-19T22:53:19.511Z,80.10
2024-02-19T22:55:50.905Z,80.60
2024-02-19T22:58:30.828Z,80.50
2024-02-19T23:01:00.399Z,79.70
2024-02-19T23:03:27.518Z,80.30
2024-02-19T23:05:54.602Z,80.60
2024-02-19T23:08:24.106Z,79.70
2024-02-19T23:10:55.793Z,80.30
2024-02-19T23:13:28.384Z,80.70
2024-02-19T23:15:55.687Z,81.20
2024-02-19T23:18:25.354Z,80.90
2024-02-19T23:20:52.458Z,81.20
2024-02-19T23:23:21.750Z,81.50
2024-02-19T23:25:54.244Z,81.70
2024-02-19T23:28:23.117Z,81.90
2024-02-19T23:30:55.369Z,82.10
2024-02-19T23:33:22.585Z,82.40
2024-02-19T23:35:51.978Z,82.70
2024-02-19T23:38:23.672Z,83.00
2024-02-19T23:40:51.185Z,83.10
2024-02-19T23:43:18.412Z,83.40
2024-02-19T23:45:48.377Z,83.60
2024-02-19T23:48:20.487Z,84.00
2024-02-19T23:50:48.525Z,84.10
2024-02-19T23:53:17.748Z,84.30
2024-02-19T23:55:47.012Z,84.50
2024-02-19T23:58:14.058Z,84.70
